createdAt,value
2018-07-08T00:00:28.651Z,65.47
2018-07-08T00:03:05.830Z,65.58
2018-07-08T00:05:41.892Z,65.40
2018-07-08T00:08:18.053Z,65.75
2018-07-08T00:10:56.058Z,66.12
2018-07-08T00:13:29.532Z,66.31
2018-07-08T00:16:04.233Z,66.74
2018-07-08T00:18:39.219Z,66.91
2018-07-08T00:21:14.897Z,66.96
2018-07-08T00:23:51.277Z,66.81
2018-07-08T00:26:24.744Z,66.79
2018-07-08T00:29:01.298Z,66.84
2018-07-08T00:31:33.863Z,67.03
2018-07-08T00:34:08.112Z,67.49
2018-07-08T00:36:41.865Z,67.76
2018-07-08T00:39:15.322Z,68.17
2018-07-08T00:41:48.109Z,68.59
2018-07-08T00:44:21.792Z,68.83
2018-07-08T00:46:54.288Z,68.80
2018-07-08T00:49:27.911Z,69.22
2018-07-08T00:52:00.613Z,69.75
2018-07-08T00:54:33.085Z,69.98
2018-07-08T00:57:06.513Z,70.21
2018-07-08T00:59:44.794Z,70.32
2018-07-08T01:02:18.661Z,70.48
2018-07-08T01:04:51.131Z,70.65
2018-07-08T01:07:25.229Z,70.97
2018-07-08T01:09:57.722Z,71.08
2018-07-08T01:12:32.357Z,71.13
2018-07-08T01:15:09.085Z,71.65
2018-07-08T01:17:43.805Z,71.84
2018-07-08T01:20:16.265Z,72.15
2018-07-08T01:22:51.977Z,72.67
2018-07-08T01:25:46.657Z,73.21
2018-07-08T01:28:19.430Z,73.24
2018-07-08T01:30:52.357Z,73.26
2018-07-08T01:33:26.170Z,73.46
2018-07-08T01:35:59.849Z,73.07
2018-07-08T01:38:32.898Z,73.00
2018-07-08T01:41:06.496Z,73.19
2018-07-08T01:43:40.263Z,73.41
2018-07-08T01:46:13.371Z,73.50
2018-07-08T01:48:45.963Z,73.83
2018-07-08T01:51:18.494Z,74.13
2018-07-08T01:53:53.086Z,74.12
2018-07-08T01:56:26.185Z,74.26
2018-07-08T01:58:59.230Z,74.41
2018-07-08T02:01:32.146Z,74.32
2018-07-08T02:04:06.921Z,74.40
2018-07-08T02:06:43.080Z,74.35
2018-07-08T02:09:17.297Z,74.12
2018-07-08T02:11:53.822Z,74.12
2018-07-08T02:14:27.953Z,74.33
2018-07-08T02:17:01.672Z,74.66
2018-07-08T02:19:38.223Z,74.91
2018-07-08T02:22:12.136Z,75.20
2018-07-08T02:24:44.969Z,75.54
2018-07-08T02:27:18.938Z,75.73
2018-07-08T02:29:52.575Z,76.03
2018-07-08T02:32:28.672Z,76.30
2018-07-08T02:35:02.081Z,76.41
2018-07-08T02:37:35.013Z,76.46
2018-07-08T02:40:08.204Z,76.71
2018-07-08T02:42:41.843Z,76.92
2018-07-08T02:45:16.521Z,76.97
2018-07-08T02:47:51.174Z,77.04
2018-07-08T02:50:24.355Z,77.43
2018-07-08T02:52:56.973Z,77.59
2018-07-08T02:55:29.770Z,77.91
2018-07-08T02:58:03.045Z,78.35
2018-07-08T03:00:35.527Z,78.37
2018-07-08T03:03:08.503Z,78.80
2018-07-08T03:05:41.083Z,79.10
2018-07-08T03:08:13.659Z,79.34
2018-07-08T03:10:46.675Z,79.63
2018-07-08T03:13:19.415Z,79.67
2018-07-08T03:15:52.955Z,79.93
2018-07-08T03:18:26.639Z,79.79
2018-07-08T03:20:59.098Z,80.00
2018-07-08T03:23:31.783Z,80.40
2018-07-08T03:26:04.666Z,80.68
2018-07-08T03:28:37.306Z,80.95
2018-07-08T03:31:10.365Z,81.04
2018-07-08T03:33:43.398Z,81.06
2018-07-08T03:36:15.838Z,81.29
2018-07-08T03:38:48.466Z,81.72
2018-07-08T03:41:21.228Z,81.76
2018-07-08T03:43:53.865Z,81.67
2018-07-08T03:46:26.634Z,81.82
2018-07-08T03:49:00.684Z,81.92
2018-07-08T03:51:33.198Z,81.95
2018-07-08T03:54:22.765Z,81.86
2018-07-08T03:56:55.345Z,81.85
2018-07-08T03:59:27.927Z,81.73
2018-07-08T04:02:00.394Z,81.92
2018-07-08T04:04:36.132Z,81.98
2018-07-08T04:07:12.397Z,82.08
2018-07-08T04:09:45.385Z,82.27
2018-07-08T04:12:17.886Z,82.23
2018-07-08T04:14:50.519Z,82.38
2018-07-08T04:17:23.362Z,82.37
2018-07-08T04:19:55.785Z,82.29
2018-07-08T04:22:29.149Z,82.47
2018-07-08T04:25:02.230Z,82.52
2018-07-08T04:27:34.740Z,82.61
2018-07-08T04:30:07.505Z,82.49
2018-07-08T04:32:41.464Z,82.51
2018-07-08T04:35:13.916Z,82.65
2018-07-08T04:37:46.481Z,82.53
2018-07-08T04:40:19.511Z,82.09
2018-07-08T04:42:52.045Z,81.79
2018-07-08T04:45:24.643Z,81.47
2018-07-08T04:47:58.456Z,81.36
2018-07-08T04:50:30.969Z,81.30
2018-07-08T04:53:03.490Z,81.10
2018-07-08T04:55:36.334Z,80.75
2018-07-08T04:58:08.754Z,80.28
2018-07-08T05:00:41.388Z,80.24
2018-07-08T05:03:14.208Z,80.01
2018-07-08T05:05:46.687Z,79.71
2018-07-08T05:08:19.266Z,79.73
2018-07-08T05:10:52.068Z,79.75
2018-07-08T05:13:24.713Z,79.69
2018-07-08T05:15:57.299Z,79.65
2018-07-08T05:18:31.767Z,79.07
2018-07-08T05:21:05.514Z,78.96
2018-07-08T05:23:38.045Z,78.62
2018-07-08T05:26:11.581Z,78.28
2018-07-08T05:28:43.993Z,78.04
2018-07-08T05:31:18.833Z,77.66
2018-07-08T05:33:51.628Z,77.30
2018-07-08T05:36:24.168Z,77.48
2018-07-08T05:38:57.768Z,77.44
2018-07-08T05:41:33.317Z,77.28
2018-07-08T05:44:06.544Z,76.82
2018-07-08T05:46:39.240Z,76.64
2018-07-08T05:49:12.201Z,76.74
2018-07-08T05:51:45.025Z,76.51
2018-07-08T05:54:17.571Z,76.45
2018-07-08T05:56:50.351Z,76.31
2018-07-08T05:59:23.429Z,75.13
2018-07-08T06:01:58.450Z,75.07
2018-07-08T06:04:32.250Z,74.28
2018-07-08T06:07:05.306Z,74.43
2018-07-08T06:09:38.041Z,74.15
2018-07-08T06:12:12.469Z,73.69
2018-07-08T06:14:44.876Z,73.80
2018-07-08T06:17:17.478Z,73.36
2018-07-08T06:19:51.097Z,72.30
2018-07-08T06:22:28.653Z,71.97
2018-07-08T06:25:01.339Z,71.63
2018-07-08T06:27:35.268Z,70.62
2018-07-08T06:30:07.984Z,70.52
2018-07-08T06:32:40.607Z,70.60
2018-07-08T06:35:13.531Z,70.38
2018-07-08T06:37:46.716Z,70.39
2018-07-08T06:40:20.390Z,69.52
2018-07-08T06:42:53.474Z,68.83
2018-07-08T06:45:25.950Z,67.56
2018-07-08T06:47:59.436Z,66.49
2018-07-08T06:50:33.149Z,66.66
2018-07-08T06:53:07.566Z,66.99
2018-07-08T06:55:40.685Z,66.78
2018-07-08T06:58:15.433Z,65.75
2018-07-08T07:00:48.022Z,64.88
2018-07-08T07:03:20.758Z,63.68
2018-07-08T07:05:56.238Z,63.36
2018-07-08T07:08:39.693Z,63.17
2018-07-08T07:11:14.488Z,63.42
2018-07-08T07:13:51.556Z,61.31
2018-07-08T07:16:25.530Z,60.72
2018-07-08T07:18:59.171Z,59.49
2018-07-08T07:21:38.851Z,60.42
2018-07-08T07:24:18.177Z,59.17
2018-07-08T07:26:53.371Z,58.65
2018-07-08T07:29:26.244Z,58.60
2018-07-08T07:32:03.473Z,58.81
2018-07-08T07:34:37.939Z,59.27
2018-07-08T07:37:21.660Z,57.26
2018-07-08T07:40:26.677Z,56.52
2018-07-08T07:43:01.468Z,55.71
2018-07-08T07:45:37.881Z,55.17
2018-07-08T07:48:22.181Z,53.53
2018-07-08T07:50:55.419Z,52.50
2018-07-08T07:53:33.212Z,52.40
2018-07-08T07:56:08.592Z,51.52
2018-07-08T07:58:42.884Z,49.83
2018-07-08T08:01:17.973Z,47.43
2018-07-08T08:03:50.646Z,43.46
2018-07-08T08:06:23.795Z,42.23
2018-07-08T08:08:57.595Z,40.24
2018-07-08T08:11:32.657Z,41.39
2018-07-08T08:14:08.302Z,41.46
2018-07-08T08:16:42.644Z,40.20
2018-07-08T08:19:21.361Z,40.63
2018-07-08T08:21:55.669Z,39.90
2018-07-08T08:24:33.470Z,38.71
2018-07-08T08:27:13.533Z,38.46
2018-07-08T08:29:58.799Z,38.71
2018-07-08T08:32:40.649Z,39.25
2018-07-08T08:35:22.095Z,37.96
2018-07-08T08:37:57.357Z,38.55
2018-07-08T08:40:32.929Z,36.85
2018-07-08T08:43:16.248Z,34.65
2018-07-08T08:45:49.572Z,35.40
2018-07-08T08:48:25.196Z,33.95
2018-07-08T08:51:02.593Z,33.53
2018-07-08T08:53:39.745Z,33.15
2018-07-08T08:56:14.162Z,33.12
2018-07-08T08:58:54.802Z,33.31
2018-07-08T09:01:40.895Z,33.80
2018-07-08T09:04:17.694Z,33.64
2018-07-08T09:06:52.789Z,33.54
2018-07-08T09:09:26.665Z,33.00
2018-07-08T09:12:02.429Z,33.40
2018-07-08T09:14:43.941Z,34.95
2018-07-08T09:17:18.369Z,33.28
2018-07-08T09:19:52.760Z,32.79
2018-07-08T09:22:31.625Z,32.13
2018-07-08T09:25:09.750Z,31.73
2018-07-08T09:27:44.990Z,30.30
2018-07-08T09:30:19.966Z,30.68
2018-07-08T09:32:53.035Z,30.14
2018-07-08T09:35:27.722Z,28.75
2018-07-08T09:38:05.570Z,29.61
2018-07-08T09:40:43.646Z,29.74
2018-07-08T09:43:19.663Z,29.51
2018-07-08T09:45:56.495Z,28.80
2018-07-08T09:48:34.410Z,29.05
2018-07-08T09:51:07.884Z,29.40
2018-07-08T09:53:44.138Z,29.48
2018-07-08T09:56:23.365Z,28.76
2018-07-08T09:58:59.234Z,29.15
2018-07-08T10:01:40.111Z,29.26
2018-07-08T10:04:16.092Z,28.27
2018-07-08T10:06:55.596Z,27.86
2018-07-08T10:09:39.479Z,29.03
2018-07-08T10:12:23.792Z,28.16
2018-07-08T10:15:00.598Z,28.33
2018-07-08T10:17:41.691Z,27.92
2018-07-08T10:20:17.674Z,28.02
2018-07-08T10:22:55.705Z,28.08
2018-07-08T10:25:40.250Z,26.78
2018-07-08T10:28:21.585Z,27.93
2018-07-08T10:31:12.854Z,28.14
2018-07-08T10:33:58.759Z,28.23
2018-07-08T10:36:43.236Z,28.36
2018-07-08T10:39:21.230Z,27.91
2018-07-08T10:42:01.491Z,27.85
2018-07-08T10:44:44.061Z,27.22
2018-07-08T10:47:28.810Z,28.07
2018-07-08T10:50:15.834Z,28.60
2018-07-08T10:52:53.174Z,28.45
2018-07-08T10:55:28.412Z,29.76
2018-07-08T10:58:06.682Z,29.97
2018-07-08T11:00:44.290Z,30.71
2018-07-08T11:03:21.473Z,30.73
2018-07-08T11:06:18.652Z,30.65
2018-07-08T11:09:09.566Z,30.04
2018-07-08T11:11:55.148Z,29.96
2018-07-08T11:14:53.210Z,28.99
2018-07-08T11:17:49.435Z,29.29
2018-07-08T11:20:30.190Z,29.43
2018-07-08T11:23:35.118Z,29.34
2018-07-08T11:26:18.510Z,29.95
2018-07-08T11:29:16.685Z,30.10
2018-07-08T11:31:54.277Z,29.75
2018-07-08T11:34:43.177Z,29.00
2018-07-08T11:37:29.343Z,29.69
2018-07-08T11:40:10.128Z,29.92
2018-07-08T11:42:46.718Z,30.18
2018-07-08T11:45:33.630Z,29.95
2018-07-08T11:48:17.599Z,30.67
2018-07-08T11:50:58.089Z,31.41
2018-07-08T11:53:33.317Z,31.42
2018-07-08T11:56:09.547Z,31.40
2018-07-08T11:58:54.963Z,31.26
2018-07-08T12:01:30.247Z,31.19
2018-07-08T12:04:11.095Z,31.01
2018-07-08T12:06:53.298Z,31.62
2018-07-08T12:09:45.690Z,31.51
2018-07-08T12:12:36.884Z,31.70
2018-07-08T12:15:20.622Z,31.15
2018-07-08T12:17:57.990Z,30.38
2018-07-08T12:20:41.349Z,30.73
2018-07-08T12:23:15.151Z,31.58
2018-07-08T12:25:50.744Z,31.33
2018-07-08T12:28:28.173Z,30.52
2018-07-08T12:31:01.400Z,30.44
2018-07-08T12:33:47.250Z,29.42
2018-07-08T12:36:21.177Z,29.68
2018-07-08T12:38:56.755Z,29.73
2018-07-08T12:41:38.336Z,30.32
2018-07-08T12:44:19.831Z,30.81
2018-07-08T12:47:01.378Z,30.29
2018-07-08T12:49:47.395Z,30.65
2018-07-08T12:52:22.513Z,30.29
2018-07-08T12:55:00.436Z,30.74
2018-07-08T12:57:37.263Z,31.43
2018-07-08T13:00:17.012Z,31.12
2018-07-08T13:03:01.563Z,31.31
2018-07-08T13:05:43.821Z,30.37
2018-07-08T13:08:22.834Z,30.36
2018-07-08T13:11:01.873Z,29.76
2018-07-08T13:13:39.538Z,30.12
2018-07-08T13:16:15.006Z,30.41
2018-07-08T13:18:50.329Z,30.32
2018-07-08T13:21:26.165Z,29.88
2018-07-08T13:24:02.452Z,30.23
2018-07-08T13:26:42.515Z,30.40
2018-07-08T13:29:20.381Z,29.73
2018-07-08T13:32:00.660Z,29.61
2018-07-08T13:34:38.485Z,29.90
2018-07-08T13:37:14.508Z,29.72
2018-07-08T13:39:48.754Z,29.36
2018-07-08T13:42:31.798Z,30.19
2018-07-08T13:45:12.519Z,29.45
2018-07-08T13:47:48.267Z,29.66
2018-07-08T13:50:21.826Z,29.07
2018-07-08T13:53:02.235Z,29.11
2018-07-08T13:55:37.360Z,29.83
2018-07-08T13:58:13.754Z,29.58
2018-07-08T14:00:53.133Z,29.29
2018-07-08T14:03:30.331Z,29.29
2018-07-08T14:06:10.802Z,29.09
2018-07-08T14:08:49.631Z,28.41
2018-07-08T14:11:25.182Z,28.86
2018-07-08T14:14:01.506Z,29.10
2018-07-08T14:16:35.865Z,28.87
2018-07-08T14:19:13.570Z,27.72
2018-07-08T14:21:50.855Z,28.12
2018-07-08T14:24:25.281Z,28.16
2018-07-08T14:26:58.925Z,27.44
2018-07-08T14:29:35.274Z,27.46
2018-07-08T14:32:10.231Z,27.01
2018-07-08T14:34:44.352Z,26.95
2018-07-08T14:37:19.468Z,26.46
2018-07-08T14:39:56.065Z,26.19
2018-07-08T14:42:33.009Z,26.44
2018-07-08T14:45:10.647Z,26.85
2018-07-08T14:47:47.636Z,26.38
2018-07-08T14:50:20.125Z,26.13
2018-07-08T14:52:54.178Z,25.74
2018-07-08T14:55:30.947Z,26.35
2018-07-08T14:58:05.802Z,26.60
2018-07-08T15:00:44.006Z,26.51
2018-07-08T15:03:19.527Z,26.39
2018-07-08T15:05:53.389Z,26.98
2018-07-08T15:08:27.612Z,27.21
2018-07-08T15:11:03.923Z,27.50
2018-07-08T15:13:39.480Z,27.79
2018-07-08T15:16:12.786Z,27.97
2018-07-08T15:18:51.730Z,28.26
2018-07-08T15:21:27.281Z,28.59
2018-07-08T15:24:01.451Z,28.85
2018-07-08T15:26:40.010Z,27.97
2018-07-08T15:29:21.790Z,27.65
2018-07-08T15:31:59.451Z,26.80
2018-07-08T15:34:36.672Z,26.14
2018-07-08T15:37:14.169Z,26.61
2018-07-08T15:39:49.077Z,26.49
2018-07-08T15:42:23.252Z,26.96
2018-07-08T15:45:00.357Z,26.13
2018-07-08T15:47:41.050Z,26.72
2018-07-08T15:50:22.508Z,26.25
2018-07-08T15:52:59.915Z,26.13
2018-07-08T15:55:42.495Z,25.96
2018-07-08T15:58:19.373Z,26.14
2018-07-08T16:00:55.867Z,26.53
2018-07-08T16:03:31.010Z,27.34
2018-07-08T16:06:11.267Z,27.83
2018-07-08T16:08:52.987Z,27.73
2018-07-08T16:11:30.554Z,27.36
2018-07-08T16:14:08.541Z,26.35
2018-07-08T16:16:45.530Z,26.24
2018-07-08T16:19:23.449Z,25.96
2018-07-08T16:22:00.972Z,25.84
2018-07-08T16:24:37.119Z,26.40
2018-07-08T16:27:14.505Z,26.63
2018-07-08T16:29:50.692Z,27.07
2018-07-08T16:32:27.630Z,26.87
2018-07-08T16:35:06.208Z,26.75
2018-07-08T16:37:56.855Z,26.99
2018-07-08T16:40:32.688Z,26.47
2018-07-08T16:43:14.118Z,26.67
2018-07-08T16:45:51.348Z,27.19
2018-07-08T16:48:30.409Z,27.42
2018-07-08T16:51:09.503Z,27.30
2018-07-08T16:53:44.838Z,27.06
2018-07-08T16:56:25.813Z,27.37
2018-07-08T16:59:06.438Z,27.39
2018-07-08T17:01:42.632Z,26.81
2018-07-08T17:04:21.585Z,27.46
2018-07-08T17:07:07.834Z,27.77
2018-07-08T17:09:52.587Z,27.96
2018-07-08T17:12:32.331Z,28.27
2018-07-08T17:15:07.070Z,28.59
2018-07-08T17:17:42.825Z,28.87
2018-07-08T17:20:21.862Z,29.01
2018-07-08T17:22:59.203Z,29.01
2018-07-08T17:25:33.999Z,29.22
2018-07-08T17:28:22.318Z,29.35
2018-07-08T17:30:57.631Z,29.35
2018-07-08T17:33:35.563Z,30.10
2018-07-08T17:36:10.820Z,30.17
2018-07-08T17:38:46.556Z,30.88
2018-07-08T17:41:21.572Z,30.99
2018-07-08T17:43:56.450Z,31.46
2018-07-08T17:46:31.477Z,31.76
2018-07-08T17:49:09.313Z,32.04
2018-07-08T17:51:51.228Z,32.43
2018-07-08T17:54:24.549Z,31.97
2018-07-08T17:57:00.657Z,32.35
2018-07-08T17:59:36.753Z,32.43
2018-07-08T18:02:21.792Z,31.86
2018-07-08T18:04:57.997Z,32.09
2018-07-08T18:07:41.402Z,32.45
2018-07-08T18:10:16.890Z,32.76
2018-07-08T18:12:57.492Z,32.98
2018-07-08T18:15:41.561Z,33.76
2018-07-08T18:18:15.063Z,34.41
2018-07-08T18:20:53.584Z,34.46
2018-07-08T18:23:32.527Z,34.84
2018-07-08T18:26:20.574Z,35.18
2018-07-08T18:29:03.667Z,35.71
2018-07-08T18:31:40.427Z,36.10
2018-07-08T18:34:15.769Z,36.47
2018-07-08T18:36:53.911Z,36.63
2018-07-08T18:39:31.650Z,37.09
2018-07-08T18:42:12.576Z,37.31
2018-07-08T18:44:48.373Z,37.55
2018-07-08T18:47:39.974Z,37.97
2018-07-08T18:50:17.788Z,38.20
2018-07-08T18:52:52.634Z,38.10
2018-07-08T18:55:27.837Z,38.11
2018-07-08T18:58:05.460Z,38.47
2018-07-08T19:00:39.628Z,38.56
2018-07-08T19:03:18.344Z,38.48
2018-07-08T19:05:53.161Z,38.58
2018-07-08T19:08:28.279Z,38.88
2018-07-08T19:11:18.769Z,39.22
2018-07-08T19:13:52.356Z,39.59
2018-07-08T19:16:26.474Z,40.03
2018-07-08T19:19:03.213Z,40.47
2018-07-08T19:21:44.576Z,40.74
2018-07-08T19:24:24.769Z,40.92
2018-07-08T19:27:05.656Z,41.22
2018-07-08T19:29:44.169Z,41.47
2018-07-08T19:32:18.777Z,41.66
2018-07-08T19:34:55.585Z,42.02
2018-07-08T19:37:30.970Z,42.33
2018-07-08T19:40:06.953Z,42.58
2018-07-08T19:42:42.175Z,43.16
2018-07-08T19:45:22.034Z,43.69
2018-07-08T19:48:05.307Z,44.28
2018-07-08T19:50:43.494Z,44.78
2018-07-08T19:53:17.328Z,45.41
2018-07-08T19:55:53.028Z,45.71
2018-07-08T19:58:28.355Z,46.14
2018-07-08T20:01:03.218Z,46.36
2018-07-08T20:03:44.265Z,47.58
2018-07-08T20:06:36.749Z,47.70
2018-07-08T20:09:23.684Z,48.28
2018-07-08T20:12:02.569Z,49.11
2018-07-08T20:14:44.993Z,49.57
2018-07-08T20:17:31.074Z,49.95
2018-07-08T20:20:10.731Z,50.06
2018-07-08T20:22:44.573Z,50.34
2018-07-08T20:25:20.814Z,50.92
2018-07-08T20:27:57.864Z,51.25
2018-07-08T20:30:36.720Z,51.78
2018-07-08T20:33:11.510Z,52.69
2018-07-08T20:35:44.908Z,53.03
2018-07-08T20:38:23.003Z,53.31
2018-07-08T20:41:04.073Z,53.62
2018-07-08T20:43:51.570Z,53.70
2018-07-08T20:46:42.592Z,54.10
2018-07-08T20:49:42.545Z,54.68
2018-07-08T20:52:22.759Z,54.63
2018-07-08T20:55:05.178Z,55.16
2018-07-08T20:57:48.237Z,55.25
2018-07-08T21:00:21.701Z,55.49
2018-07-08T21:02:55.853Z,56.23
2018-07-08T21:05:33.827Z,56.26
2018-07-08T21:08:11.861Z,56.12
2018-07-08T21:10:51.590Z,56.27
2018-07-08T21:13:31.485Z,56.45
2018-07-08T21:16:07.653Z,56.68
2018-07-08T21:18:42.687Z,56.99
2018-07-08T21:21:18.931Z,56.99
2018-07-08T21:23:52.600Z,57.19
2018-07-08T21:26:27.664Z,57.22
2018-07-08T21:29:02.760Z,57.55
2018-07-08T21:31:39.002Z,57.89
2018-07-08T21:34:13.658Z,58.55
2018-07-08T21:36:47.175Z,59.26
2018-07-08T21:39:22.313Z,59.47
2018-07-08T21:41:56.573Z,60.05
2018-07-08T21:44:34.988Z,60.29
2018-07-08T21:47:11.487Z,60.40
2018-07-08T21:49:46.028Z,60.49
2018-07-08T21:52:20.363Z,61.01
2018-07-08T21:54:53.499Z,61.35
2018-07-08T21:57:28.572Z,61.43
2018-07-08T22:00:06.914Z,61.46
2018-07-08T22:02:58.429Z,61.93
2018-07-08T22:05:31.836Z,62.07
2018-07-08T22:08:07.320Z,62.56
2018-07-08T22:10:52.079Z,63.10
2018-07-08T22:13:26.733Z,63.27
2018-07-08T22:16:04.282Z,63.34
2018-07-08T22:18:41.292Z,63.45
2018-07-08T22:21:30.687Z,63.60
2018-07-08T22:24:26.314Z,63.60
2018-07-08T22:27:00.303Z,63.77
2018-07-08T22:29:36.450Z,64.07
2018-07-08T22:32:11.645Z,64.33
2018-07-08T22:34:45.458Z,64.64
2018-07-08T22:37:21.906Z,65.32
2018-07-08T22:39:58.410Z,65.41
2018-07-08T22:42:32.604Z,65.83
2018-07-08T22:45:13.157Z,65.88
2018-07-08T22:47:46.489Z,66.08
2018-07-08T22:50:19.039Z,66.55
2018-07-08T22:52:56.371Z,66.63
2018-07-08T22:55:30.975Z,66.91
2018-07-08T22:58:06.513Z,67.43
2018-07-08T23:01:02.638Z,67.62
2018-07-08T23:03:58.045Z,67.58
2018-07-08T23:06:32.996Z,67.34
2018-07-08T23:09:09.657Z,67.01
2018-07-08T23:11:43.141Z,67.09
2018-07-08T23:14:16.290Z,67.14
2018-07-08T23:16:56.582Z,67.19
2018-07-08T23:19:29.929Z,67.50
2018-07-08T23:22:03.777Z,67.46
2018-07-08T23:24:38.841Z,67.59
2018-07-08T23:27:14.271Z,67.53
2018-07-08T23:29:48.969Z,67.41
2018-07-08T23:32:25.685Z,67.71
2018-07-08T23:34:59.609Z,67.86
2018-07-08T23:37:42.405Z,68.21
2018-07-08T23:40:18.669Z,68.29
2018-07-08T23:42:51.569Z,68.42
2018-07-08T23:45:25.154Z,68.69
2018-07-08T23:47:57.796Z,68.67
2018-07-08T23:50:32.110Z,68.40
2018-07-08T23:53:04.786Z,68.19
2018-07-08T23:55:37.297Z,68.32
2018-07-08T23:58:10.034Z,68.41
